sensor_id;sensor_type;location;lat;lon;timestamp;P1;durP1;ratioP1;P2;durP2;ratioP2
10126;SDS011;13080;42.608;23.362;2023-08-17T00:01:05;4.57;;;2.30;;
10126;SDS011;13080;42.608;23.362;2023-08-17T00:03:32;4.18;;;2.20;;
10126;SDS011;13080;42.608;23.362;2023-08-17T00:05:58;6.50;;;2.50;;
10126;SDS011;13080;42.608;23.362;2023-08-17T00:08:25;4.88;;;2.45;;
10126;SDS011;13080;42.608;23.362;2023-08-17T00:10:52;2.97;;;2.30;;
10126;SDS011;13080;42.608;23.362;2023-08-17T00:13:18;6.15;;;2.88;;
10126;SDS011;13080;42.608;23.362;2023-08-17T00:15:45;3.83;;;2.17;;
10126;SDS011;13080;42.608;23.362;2023-08-17T00:18:12;4.80;;;2.47;;
10126;SDS011;13080;42.608;23.362;2023-08-17T00:20:39;6.03;;;2.47;;
10126;SDS011;13080;42.608;23.362;2023-08-17T00:23:06;5.47;;;2.10;;
10126;SDS011;13080;42.608;23.362;2023-08-17T00:25:33;5.28;;;2.63;;
10126;SDS011;13080;42.608;23.362;2023-08-17T00:27:59;4.57;;;2.30;;
10126;SDS011;13080;42.608;23.362;2023-08-17T00:30:26;6.88;;;2.47;;
10126;SDS011;13080;42.608;23.362;2023-08-17T00:32:53;4.68;;;2.30;;
10126;SDS011;13080;42.608;23.362;2023-08-17T00:35:21;5.15;;;2.25;;
10126;SDS011;13080;42.608;23.362;2023-08-17T00:37:47;3.50;;;1.73;;
10126;SDS011;13080;42.608;23.362;2023-08-17T00:40:14;5.47;;;2.20;;
10126;SDS011;13080;42.608;23.362;2023-08-17T00:42:40;5.80;;;2.17;;
10126;SDS011;13080;42.608;23.362;2023-08-17T00:45:07;3.53;;;2.25;;
10126;SDS011;13080;42.608;23.362;2023-08-17T00:47:33;3.85;;;2.28;;
10126;SDS011;13080;42.608;23.362;2023-08-17T00:50:00;3.33;;;2.25;;
10126;SDS011;13080;42.608;23.362;2023-08-17T00:52:28;6.68;;;2.30;;
10126;SDS011;13080;42.608;23.362;2023-08-17T00:54:55;6.43;;;2.60;;
10126;SDS011;13080;42.608;23.362;2023-08-17T00:57:21;2.88;;;2.10;;
10126;SDS011;13080;42.608;23.362;2023-08-17T00:59:49;3.80;;;2.45;;
10126;SDS011;13080;42.608;23.362;2023-08-17T01:02:16;3.88;;;2.38;;
10126;SDS011;13080;42.608;23.362;2023-08-17T01:04:43;5.20;;;2.15;;
10126;SDS011;13080;42.608;23.362;2023-08-17T01:07:09;3.15;;;2.20;;
10126;SDS011;13080;42.608;23.362;2023-08-17T01:09:37;4.00;;;2.00;;
10126;SDS011;13080;42.608;23.362;2023-08-17T01:12:05;2.88;;;2.17;;
10126;SDS011;13080;42.608;23.362;2023-08-17T01:14:36;3.35;;;2.20;;
10126;SDS011;13080;42.608;23.362;2023-08-17T01:17:05;6.03;;;2.25;;
10126;SDS011;13080;42.608;23.362;2023-08-17T01:19:33;4.70;;;2.03;;
10126;SDS011;13080;42.608;23.362;2023-08-17T01:22:00;4.82;;;2.30;;
10126;SDS011;13080;42.608;23.362;2023-08-17T01:24:31;6.70;;;2.15;;
10126;SDS011;13080;42.608;23.362;2023-08-17T01:26:57;3.00;;;1.95;;
10126;SDS011;13080;42.608;23.362;2023-08-17T01:29:24;5.55;;;2.38;;
10126;SDS011;13080;42.608;23.362;2023-08-17T01:31:53;3.47;;;1.98;;
10126;SDS011;13080;42.608;23.362;2023-08-17T01:34:21;3.80;;;2.00;;
10126;SDS011;13080;42.608;23.362;2023-08-17T01:36:50;5.22;;;2.08;;
10126;SDS011;13080;42.608;23.362;2023-08-17T01:39:18;4.28;;;1.92;;
10126;SDS011;13080;42.608;23.362;2023-08-17T01:41:48;4.07;;;2.17;;
10126;SDS011;13080;42.608;23.362;2023-08-17T01:44:15;8.23;;;1.80;;
10126;SDS011;13080;42.608;23.362;2023-08-17T01:46:42;4.85;;;1.67;;
10126;SDS011;13080;42.608;23.362;2023-08-17T01:49:08;3.47;;;1.42;;
10126;SDS011;13080;42.608;23.362;2023-08-17T01:51:35;2.95;;;1.98;;
10126;SDS011;13080;42.608;23.362;2023-08-17T01:54:01;3.58;;;1.48;;
10126;SDS011;13080;42.608;23.362;2023-08-17T01:56:28;2.70;;;1.50;;
10126;SDS011;13080;42.608;23.362;2023-08-17T01:58:55;3.35;;;1.60;;
10126;SDS011;13080;42.608;23.362;2023-08-17T02:01:22;2.95;;;1.65;;
10126;SDS011;13080;42.608;23.362;2023-08-17T02:03:48;5.18;;;2.10;;
10126;SDS011;13080;42.608;23.362;2023-08-17T02:06:15;3.85;;;2.00;;
10126;SDS011;13080;42.608;23.362;2023-08-17T02:08:41;4.88;;;1.90;;
10126;SDS011;13080;42.608;23.362;2023-08-17T02:11:08;6.30;;;1.80;;
10126;SDS011;13080;42.608;23.362;2023-08-17T02:13:35;5.22;;;1.80;;
10126;SDS011;13080;42.608;23.362;2023-08-17T02:16:04;3.65;;;1.88;;
10126;SDS011;13080;42.608;23.362;2023-08-17T02:18:30;4.55;;;1.80;;
10126;SDS011;13080;42.608;23.362;2023-08-17T02:20:59;2.05;;;1.55;;
10126;SDS011;13080;42.608;23.362;2023-08-17T02:23:26;2.85;;;1.77;;
10126;SDS011;13080;42.608;23.362;2023-08-17T02:25:52;5.68;;;1.50;;
10126;SDS011;13080;42.608;23.362;2023-08-17T02:28:19;2.20;;;1.13;;
10126;SDS011;13080;42.608;23.362;2023-08-17T02:30:45;3.38;;;1.38;;
10126;SDS011;13080;42.608;23.362;2023-08-17T02:33:14;2.65;;;1.60;;
10126;SDS011;13080;42.608;23.362;2023-08-17T02:35:40;4.20;;;1.40;;
10126;SDS011;13080;42.608;23.362;2023-08-17T02:38:07;2.50;;;1.73;;
10126;SDS011;13080;42.608;23.362;2023-08-17T02:40:34;2.50;;;1.52;;
10126;SDS011;13080;42.608;23.362;2023-08-17T02:43:00;3.25;;;1.60;;
10126;SDS011;13080;42.608;23.362;2023-08-17T02:45:27;4.28;;;2.40;;
10126;SDS011;13080;42.608;23.362;2023-08-17T02:47:53;3.03;;;1.52;;
10126;SDS011;13080;42.608;23.362;2023-08-17T02:50:21;3.90;;;1.50;;
10126;SDS011;13080;42.608;23.362;2023-08-17T02:52:48;3.53;;;1.50;;
10126;SDS011;13080;42.608;23.362;2023-08-17T02:55:14;2.65;;;1.20;;
10126;SDS011;13080;42.608;23.362;2023-08-17T02:57:41;2.13;;;1.30;;
10126;SDS011;13080;42.608;23.362;2023-08-17T03:00:07;1.85;;;1.10;;
10126;SDS011;13080;42.608;23.362;2023-08-17T03:02:34;3.17;;;1.40;;
10126;SDS011;13080;42.608;23.362;2023-08-17T03:05:01;1.67;;;1.10;;
10126;SDS011;13080;42.608;23.362;2023-08-17T03:07:29;2.55;;;1.38;;
10126;SDS011;13080;42.608;23.362;2023-08-17T03:09:55;3.13;;;1.27;;
10126;SDS011;13080;42.608;23.362;2023-08-17T03:12:22;2.47;;;1.40;;
10126;SDS011;13080;42.608;23.362;2023-08-17T03:14:48;3.17;;;1.30;;
10126;SDS011;13080;42.608;23.362;2023-08-17T03:17:15;5.13;;;1.27;;
10126;SDS011;13080;42.608;23.362;2023-08-17T03:19:41;5.25;;;1.35;;
10126;SDS011;13080;42.608;23.362;2023-08-17T03:22:08;6.25;;;1.30;;
10126;SDS011;13080;42.608;23.362;2023-08-17T03:24:37;3.50;;;1.73;;
10126;SDS011;13080;42.608;23.362;2023-08-17T03:27:03;2.60;;;1.38;;
10126;SDS011;13080;42.608;23.362;2023-08-17T03:29:30;2.70;;;1.40;;
10126;SDS011;13080;42.608;23.362;2023-08-17T03:31:56;3.88;;;1.60;;
10126;SDS011;13080;42.608;23.362;2023-08-17T03:34:23;2.70;;;1.40;;
10126;SDS011;13080;42.608;23.362;2023-08-17T03:36:49;2.88;;;1.27;;
10126;SDS011;13080;42.608;23.362;2023-08-17T03:39:16;2.50;;;1.42;;
10126;SDS011;13080;42.608;23.362;2023-08-17T03:41:44;5.13;;;1.95;;
10126;SDS011;13080;42.608;23.362;2023-08-17T03:44:10;2.25;;;1.40;;
10126;SDS011;13080;42.608;23.362;2023-08-17T03:46:38;4.30;;;1.70;;
10126;SDS011;13080;42.608;23.362;2023-08-17T03:49:05;3.35;;;1.42;;
10126;SDS011;13080;42.608;23.362;2023-08-17T03:51:31;4.00;;;1.92;;
10126;SDS011;13080;42.608;23.362;2023-08-17T03:53:58;2.03;;;1.23;;
10126;SDS011;13080;42.608;23.362;2023-08-17T03:56:25;2.35;;;1.67;;
10126;SDS011;13080;42.608;23.362;2023-08-17T03:58:53;2.70;;;1.67;;
10126;SDS011;13080;42.608;23.362;2023-08-17T04:01:20;5.88;;;1.45;;
10126;SDS011;13080;42.608;23.362;2023-08-17T04:03:46;6.25;;;1.50;;
10126;SDS011;13080;42.608;23.362;2023-08-17T04:06:12;2.33;;;1.40;;
10126;SDS011;13080;42.608;23.362;2023-08-17T04:08:39;2.33;;;1.50;;
10126;SDS011;13080;42.608;23.362;2023-08-17T04:11:05;2.13;;;1.90;;
10126;SDS011;13080;42.608;23.362;2023-08-17T04:13:32;2.15;;;1.58;;
10126;SDS011;13080;42.608;23.362;2023-08-17T04:16:00;3.25;;;1.60;;
10126;SDS011;13080;42.608;23.362;2023-08-17T04:18:26;8.85;;;1.50;;
10126;SDS011;13080;42.608;23.362;2023-08-17T04:20:53;2.13;;;1.50;;
10126;SDS011;13080;42.608;23.362;2023-08-17T04:23:19;2.35;;;1.73;;
10126;SDS011;13080;42.608;23.362;2023-08-17T04:25:46;3.00;;;1.80;;
10126;SDS011;13080;42.608;23.362;2023-08-17T04:28:12;2.10;;;1.50;;
10126;SDS011;13080;42.608;23.362;2023-08-17T04:30:39;2.83;;;1.63;;
10126;SDS011;13080;42.608;23.362;2023-08-17T04:33:07;2.83;;;1.70;;
10126;SDS011;13080;42.608;23.362;2023-08-17T04:35:34;2.08;;;1.55;;
10126;SDS011;13080;42.608;23.362;2023-08-17T04:38:00;4.90;;;1.35;;
10126;SDS011;13080;42.608;23.362;2023-08-17T04:40:27;2.15;;;1.67;;
10126;SDS011;13080;42.608;23.362;2023-08-17T04:42:53;2.22;;;1.60;;
10126;SDS011;13080;42.608;23.362;2023-08-17T04:45:20;3.00;;;1.67;;
10126;SDS011;13080;42.608;23.362;2023-08-17T04:47:46;4.15;;;1.80;;
10126;SDS011;13080;42.608;23.362;2023-08-17T04:50:14;5.38;;;1.83;;
10126;SDS011;13080;42.608;23.362;2023-08-17T04:52:42;3.47;;;1.85;;
10126;SDS011;13080;42.608;23.362;2023-08-17T04:55:08;3.90;;;2.13;;
10126;SDS011;13080;42.608;23.362;2023-08-17T04:57:35;2.03;;;1.63;;
10126;SDS011;13080;42.608;23.362;2023-08-17T05:00:01;3.45;;;1.90;;
10126;SDS011;13080;42.608;23.362;2023-08-17T05:02:29;2.35;;;1.70;;
10126;SDS011;13080;42.608;23.362;2023-08-17T05:04:55;4.93;;;2.17;;
10126;SDS011;13080;42.608;23.362;2023-08-17T05:07:24;3.78;;;1.73;;
10126;SDS011;13080;42.608;23.362;2023-08-17T05:09:50;2.03;;;1.80;;
10126;SDS011;13080;42.608;23.362;2023-08-17T05:12:17;2.83;;;1.80;;
10126;SDS011;13080;42.608;23.362;2023-08-17T05:14:44;4.75;;;1.60;;
10126;SDS011;13080;42.608;23.362;2023-08-17T05:17:10;3.28;;;1.80;;
10126;SDS011;13080;42.608;23.362;2023-08-17T05:19:37;4.65;;;1.67;;
10126;SDS011;13080;42.608;23.362;2023-08-17T05:22:05;2.45;;;1.63;;
10126;SDS011;13080;42.608;23.362;2023-08-17T05:24:33;4.43;;;1.45;;
10126;SDS011;13080;42.608;23.362;2023-08-17T05:26:59;3.63;;;1.80;;
10126;SDS011;13080;42.608;23.362;2023-08-17T05:29:26;3.05;;;1.90;;
10126;SDS011;13080;42.608;23.362;2023-08-17T05:31:52;3.38;;;1.58;;
10126;SDS011;13080;42.608;23.362;2023-08-17T05:34:19;4.00;;;2.13;;
10126;SDS011;13080;42.608;23.362;2023-08-17T05:36:45;11.73;;;2.63;;
10126;SDS011;13080;42.608;23.362;2023-08-17T05:39:12;9.00;;;2.38;;
10126;SDS011;13080;42.608;23.362;2023-08-17T05:41:40;4.45;;;1.77;;
10126;SDS011;13080;42.608;23.362;2023-08-17T05:44:06;3.65;;;2.10;;
10126;SDS011;13080;42.608;23.362;2023-08-17T05:46:33;3.90;;;1.75;;
10126;SDS011;13080;42.608;23.362;2023-08-17T05:49:00;3.22;;;1.80;;
10126;SDS011;13080;42.608;23.362;2023-08-17T05:51:26;2.45;;;1.88;;
10126;SDS011;13080;42.608;23.362;2023-08-17T05:53:53;6.50;;;1.83;;
10126;SDS011;13080;42.608;23.362;2023-08-17T05:56:19;7.95;;;2.00;;
10126;SDS011;13080;42.608;23.362;2023-08-17T05:58:47;6.78;;;2.00;;
10126;SDS011;13080;42.608;23.362;2023-08-17T06:01:14;9.43;;;2.08;;
10126;SDS011;13080;42.608;23.362;2023-08-17T06:03:40;5.15;;;2.15;;
10126;SDS011;13080;42.608;23.362;2023-08-17T06:06:07;2.45;;;1.63;;
10126;SDS011;13080;42.608;23.362;2023-08-17T06:08:33;3.42;;;2.10;;
10126;SDS011;13080;42.608;23.362;2023-08-17T06:11:00;5.20;;;2.13;;
10126;SDS011;13080;42.608;23.362;2023-08-17T06:13:27;7.03;;;2.45;;
10126;SDS011;13080;42.608;23.362;2023-08-17T06:15:54;5.43;;;2.47;;
10126;SDS011;13080;42.608;23.362;2023-08-17T06:18:22;5.95;;;2.40;;
10126;SDS011;13080;42.608;23.362;2023-08-17T06:20:48;6.05;;;2.00;;
10126;SDS011;13080;42.608;23.362;2023-08-17T06:23:17;17.73;;;3.05;;
10126;SDS011;13080;42.608;23.362;2023-08-17T06:25:43;7.22;;;2.58;;
10126;SDS011;13080;42.608;23.362;2023-08-17T06:28:10;8.50;;;3.13;;
10126;SDS011;13080;42.608;23.362;2023-08-17T06:30:36;9.77;;;2.25;;
10126;SDS011;13080;42.608;23.362;2023-08-17T06:33:04;8.30;;;2.65;;
10126;SDS011;13080;42.608;23.362;2023-08-17T06:35:31;4.07;;;2.33;;
10126;SDS011;13080;42.608;23.362;2023-08-17T06:37:57;10.30;;;2.75;;
10126;SDS011;13080;42.608;23.362;2023-08-17T06:40:24;5.60;;;2.33;;
10126;SDS011;13080;42.608;23.362;2023-08-17T06:42:52;6.50;;;2.88;;
10126;SDS011;13080;42.608;23.362;2023-08-17T06:45:19;10.32;;;3.20;;
10126;SDS011;13080;42.608;23.362;2023-08-17T06:47:47;9.35;;;2.60;;
10126;SDS011;13080;42.608;23.362;2023-08-17T06:50:16;8.27;;;2.90;;
10126;SDS011;13080;42.608;23.362;2023-08-17T06:52:42;6.07;;;3.33;;
10126;SDS011;13080;42.608;23.362;2023-08-17T06:55:09;5.10;;;2.92;;
10126;SDS011;13080;42.608;23.362;2023-08-17T06:57:36;4.15;;;3.13;;
10126;SDS011;13080;42.608;23.362;2023-08-17T07:00:03;6.10;;;2.78;;
10126;SDS011;13080;42.608;23.362;2023-08-17T07:02:31;6.97;;;2.90;;
10126;SDS011;13080;42.608;23.362;2023-08-17T07:04:57;10.18;;;2.80;;
10126;SDS011;13080;42.608;23.362;2023-08-17T07:07:25;5.05;;;3.30;;
10126;SDS011;13080;42.608;23.362;2023-08-17T07:09:52;10.32;;;3.50;;
10126;SDS011;13080;42.608;23.362;2023-08-17T07:12:18;7.72;;;3.20;;
10126;SDS011;13080;42.608;23.362;2023-08-17T07:14:45;7.28;;;2.97;;
10126;SDS011;13080;42.608;23.362;2023-08-17T07:17:11;3.50;;;2.60;;
10126;SDS011;13080;42.608;23.362;2023-08-17T07:19:38;3.00;;;2.40;;
10126;SDS011;13080;42.608;23.362;2023-08-17T07:22:04;6.00;;;2.40;;
10126;SDS011;13080;42.608;23.362;2023-08-17T07:24:32;5.95;;;2.97;;
10126;SDS011;13080;42.608;23.362;2023-08-17T07:26:59;4.20;;;2.45;;
10126;SDS011;13080;42.608;23.362;2023-08-17T07:29:25;10.27;;;2.83;;
10126;SDS011;13080;42.608;23.362;2023-08-17T07:31:52;6.55;;;2.70;;
10126;SDS011;13080;42.608;23.362;2023-08-17T07:34:19;6.13;;;2.78;;
10126;SDS011;13080;42.608;23.362;2023-08-17T07:36:46;9.75;;;2.78;;
10126;SDS011;13080;42.608;23.362;2023-08-17T07:39:12;9.85;;;3.30;;
10126;SDS011;13080;42.608;23.362;2023-08-17T07:41:40;6.28;;;2.70;;
10126;SDS011;13080;42.608;23.362;2023-08-17T07:44:07;5.15;;;2.35;;
10126;SDS011;13080;42.608;23.362;2023-08-17T07:46:33;4.43;;;2.60;;
10126;SDS011;13080;42.608;23.362;2023-08-17T07:49:00;11.77;;;2.95;;
10126;SDS011;13080;42.608;23.362;2023-08-17T07:51:26;4.72;;;2.58;;
10126;SDS011;13080;42.608;23.362;2023-08-17T07:53:55;4.30;;;2.58;;
10126;SDS011;13080;42.608;23.362;2023-08-17T07:56:21;8.48;;;2.88;;
10126;SDS011;13080;42.608;23.362;2023-08-17T07:58:49;5.97;;;2.90;;
10126;SDS011;13080;42.608;23.362;2023-08-17T08:01:16;4.10;;;2.40;;
10126;SDS011;13080;42.608;23.362;2023-08-17T08:03:43;4.82;;;2.78;;
10126;SDS011;13080;42.608;23.362;2023-08-17T08:06:09;6.80;;;2.78;;
10126;SDS011;13080;42.608;23.362;2023-08-17T08:08:36;8.38;;;2.65;;
10126;SDS011;13080;42.608;23.362;2023-08-17T08:11:02;8.02;;;2.55;;
10126;SDS011;13080;42.608;23.362;2023-08-17T08:13:29;6.05;;;3.00;;
10126;SDS011;13080;42.608;23.362;2023-08-17T08:15:57;5.90;;;2.97;;
10126;SDS011;13080;42.608;23.362;2023-08-17T08:18:24;9.85;;;3.30;;
10126;SDS011;13080;42.608;23.362;2023-08-17T08:20:51;7.25;;;4.03;;
10126;SDS011;13080;42.608;23.362;2023-08-17T08:23:17;4.88;;;3.10;;
10126;SDS011;13080;42.608;23.362;2023-08-17T08:25:44;10.15;;;3.92;;
10126;SDS011;13080;42.608;23.362;2023-08-17T08:28:10;4.15;;;3.75;;
10126;SDS011;13080;42.608;23.362;2023-08-17T08:30:37;5.10;;;3.63;;
10126;SDS011;13080;42.608;23.362;2023-08-17T08:33:05;7.78;;;3.53;;
10126;SDS011;13080;42.608;23.362;2023-08-17T08:35:31;5.30;;;3.03;;
10126;SDS011;13080;42.608;23.362;2023-08-17T08:37:58;23.88;;;4.28;;
10126;SDS011;13080;42.608;23.362;2023-08-17T08:40:27;9.63;;;3.40;;
10126;SDS011;13080;42.608;23.362;2023-08-17T08:42:54;9.45;;;3.72;;
10126;SDS011;13080;42.608;23.362;2023-08-17T08:45:20;4.32;;;3.50;;
10126;SDS011;13080;42.608;23.362;2023-08-17T08:47:48;7.57;;;3.08;;
10126;SDS011;13080;42.608;23.362;2023-08-17T08:50:17;4.28;;;2.83;;
10126;SDS011;13080;42.608;23.362;2023-08-17T08:52:44;7.00;;;3.95;;
10126;SDS011;13080;42.608;23.362;2023-08-17T08:55:14;5.30;;;3.40;;
10126;SDS011;13080;42.608;23.362;2023-08-17T08:57:41;9.27;;;3.13;;
10126;SDS011;13080;42.608;23.362;2023-08-17T09:00:09;3.88;;;3.00;;
10126;SDS011;13080;42.608;23.362;2023-08-17T09:02:37;8.18;;;2.55;;
10126;SDS011;13080;42.608;23.362;2023-08-17T09:05:04;5.75;;;2.45;;
10126;SDS011;13080;42.608;23.362;2023-08-17T09:07:32;10.15;;;2.35;;
10126;SDS011;13080;42.608;23.362;2023-08-17T09:09:59;4.72;;;2.60;;
10126;SDS011;13080;42.608;23.362;2023-08-17T09:12:26;5.78;;;2.85;;
10126;SDS011;13080;42.608;23.362;2023-08-17T09:14:52;3.88;;;2.92;;
10126;SDS011;13080;42.608;23.362;2023-08-17T09:17:22;7.93;;;2.83;;
10126;SDS011;13080;42.608;23.362;2023-08-17T09:19:49;3.78;;;2.75;;
10126;SDS011;13080;42.608;23.362;2023-08-17T09:22:18;14.20;;;3.00;;
10126;SDS011;13080;42.608;23.362;2023-08-17T09:24:49;6.35;;;2.85;;
10126;SDS011;13080;42.608;23.362;2023-08-17T09:27:15;4.70;;;2.38;;
10126;SDS011;13080;42.608;23.362;2023-08-17T09:29:42;5.10;;;2.10;;
10126;SDS011;13080;42.608;23.362;2023-08-17T09:32:10;5.55;;;1.95;;
10126;SDS011;13080;42.608;23.362;2023-08-17T09:34:37;6.35;;;2.17;;
10126;SDS011;13080;42.608;23.362;2023-08-17T09:39:56;3.45;;;2.13;;
10126;SDS011;13080;42.608;23.362;2023-08-17T09:42:22;3.70;;;2.08;;
10126;SDS011;13080;42.608;23.362;2023-08-17T09:44:50;6.43;;;1.88;;
10126;SDS011;13080;42.608;23.362;2023-08-17T09:47:17;24.20;;;2.58;;
10126;SDS011;13080;42.608;23.362;2023-08-17T09:49:47;2.58;;;2.15;;
10126;SDS011;13080;42.608;23.362;2023-08-17T09:52:14;4.55;;;1.92;;
10126;SDS011;13080;42.608;23.362;2023-08-17T09:54:40;2.10;;;1.70;;
10126;SDS011;13080;42.608;23.362;2023-08-17T09:57:08;12.52;;;3.10;;
10126;SDS011;13080;42.608;23.362;2023-08-17T09:59:35;5.75;;;2.05;;
10126;SDS011;13080;42.608;23.362;2023-08-17T10:02:02;5.53;;;1.95;;
10126;SDS011;13080;42.608;23.362;2023-08-17T10:04:29;2.40;;;1.75;;
10126;SDS011;13080;42.608;23.362;2023-08-17T10:06:58;3.85;;;2.10;;
10126;SDS011;13080;42.608;23.362;2023-08-17T10:09:25;1.90;;;1.70;;
10126;SDS011;13080;42.608;23.362;2023-08-17T10:11:56;4.57;;;2.05;;
10126;SDS011;13080;42.608;23.362;2023-08-17T10:14:27;4.18;;;2.00;;
10126;SDS011;13080;42.608;23.362;2023-08-17T10:16:57;5.55;;;2.00;;
10126;SDS011;13080;42.608;23.362;2023-08-17T10:19:30;6.20;;;2.33;;
10126;SDS011;13080;42.608;23.362;2023-08-17T10:22:01;5.60;;;1.73;;
10126;SDS011;13080;42.608;23.362;2023-08-17T10:24:29;4.32;;;1.90;;
10126;SDS011;13080;42.608;23.362;2023-08-17T10:26:58;4.43;;;1.95;;
10126;SDS011;13080;42.608;23.362;2023-08-17T10:29:26;5.88;;;2.20;;
10126;SDS011;13080;42.608;23.362;2023-08-17T10:31:53;3.50;;;1.75;;
10126;SDS011;13080;42.608;23.362;2023-08-17T10:34:20;5.03;;;1.67;;
10126;SDS011;13080;42.608;23.362;2023-08-17T10:36:46;4.60;;;2.10;;
10126;SDS011;13080;42.608;23.362;2023-08-17T10:39:20;4.50;;;2.20;;
10126;SDS011;13080;42.608;23.362;2023-08-17T10:41:47;6.65;;;2.03;;
10126;SDS011;13080;42.608;23.362;2023-08-17T10:44:14;4.28;;;2.20;;
10126;SDS011;13080;42.608;23.362;2023-08-17T10:46:42;8.02;;;2.33;;
10126;SDS011;13080;42.608;23.362;2023-08-17T10:49:23;1.83;;;1.70;;
10126;SDS011;13080;42.608;23.362;2023-08-17T10:51:59;3.17;;;2.30;;
10126;SDS011;13080;42.608;23.362;2023-08-17T10:54:35;7.45;;;2.00;;
10126;SDS011;13080;42.608;23.362;2023-08-17T10:59:43;3.47;;;1.73;;
10126;SDS011;13080;42.608;23.362;2023-08-17T11:02:11;7.22;;;1.95;;
10126;SDS011;13080;42.608;23.362;2023-08-17T11:04:37;10.38;;;1.90;;
10126;SDS011;13080;42.608;23.362;2023-08-17T11:07:04;4.60;;;1.77;;
10126;SDS011;13080;42.608;23.362;2023-08-17T11:09:41;5.53;;;2.50;;
10126;SDS011;13080;42.608;23.362;2023-08-17T11:12:16;2.65;;;1.80;;
10126;SDS011;13080;42.608;23.362;2023-08-17T11:14:50;1.83;;;1.58;;
10126;SDS011;13080;42.608;23.362;2023-08-17T11:17:21;6.43;;;2.08;;
10126;SDS011;13080;42.608;23.362;2023-08-17T11:19:47;3.72;;;1.85;;
10126;SDS011;13080;42.608;23.362;2023-08-17T11:22:16;2.65;;;1.80;;
10126;SDS011;13080;42.608;23.362;2023-08-17T11:24:43;9.38;;;2.47;;
10126;SDS011;13080;42.608;23.362;2023-08-17T11:27:09;5.85;;;2.13;;
10126;SDS011;13080;42.608;23.362;2023-08-17T11:29:36;5.00;;;1.85;;
10126;SDS011;13080;42.608;23.362;2023-08-17T11:32:03;6.50;;;2.25;;
10126;SDS011;13080;42.608;23.362;2023-08-17T11:34:31;3.10;;;1.90;;
10126;SDS011;13080;42.608;23.362;2023-08-17T11:36:57;5.47;;;2.13;;
10126;SDS011;13080;42.608;23.362;2023-08-17T11:39:24;4.25;;;1.60;;
10126;SDS011;13080;42.608;23.362;2023-08-17T11:41:50;7.15;;;1.90;;
10126;SDS011;13080;42.608;23.362;2023-08-17T11:44:18;6.40;;;2.20;;
10126;SDS011;13080;42.608;23.362;2023-08-17T11:46:45;4.55;;;1.90;;
10126;SDS011;13080;42.608;23.362;2023-08-17T11:49:12;5.88;;;1.83;;
10126;SDS011;13080;42.608;23.362;2023-08-17T11:51:40;3.13;;;1.77;;
10126;SDS011;13080;42.608;23.362;2023-08-17T11:54:07;2.13;;;1.75;;
10126;SDS011;13080;42.608;23.362;2023-08-17T11:56:34;3.47;;;1.90;;
10126;SDS011;13080;42.608;23.362;2023-08-17T11:59:07;4.90;;;2.20;;
10126;SDS011;13080;42.608;23.362;2023-08-17T12:01:34;5.60;;;2.42;;
10126;SDS011;13080;42.608;23.362;2023-08-17T12:04:03;5.10;;;2.72;;
10126;SDS011;13080;42.608;23.362;2023-08-17T12:06:30;9.30;;;2.60;;
10126;SDS011;13080;42.608;23.362;2023-08-17T12:08:58;5.60;;;2.80;;
10126;SDS011;13080;42.608;23.362;2023-08-17T12:11:24;7.28;;;2.42;;
10126;SDS011;13080;42.608;23.362;2023-08-17T12:13:51;4.15;;;2.70;;
10126;SDS011;13080;42.608;23.362;2023-08-17T12:16:18;6.10;;;3.33;;
10126;SDS011;13080;42.608;23.362;2023-08-17T12:18:44;5.80;;;2.50;;
10126;SDS011;13080;42.608;23.362;2023-08-17T12:21:11;5.80;;;2.67;;
10126;SDS011;13080;42.608;23.362;2023-08-17T12:23:38;10.45;;;2.70;;
10126;SDS011;13080;42.608;23.362;2023-08-17T12:26:06;5.80;;;3.20;;
10126;SDS011;13080;42.608;23.362;2023-08-17T12:28:32;9.05;;;4.03;;
10126;SDS011;13080;42.608;23.362;2023-08-17T12:31:00;8.02;;;2.80;;
10126;SDS011;13080;42.608;23.362;2023-08-17T12:33:26;10.48;;;3.10;;
10126;SDS011;13080;42.608;23.362;2023-08-17T12:35:53;4.00;;;2.55;;
10126;SDS011;13080;42.608;23.362;2023-08-17T12:38:19;4.13;;;3.00;;
10126;SDS011;13080;42.608;23.362;2023-08-17T12:40:46;7.68;;;3.03;;
10126;SDS011;13080;42.608;23.362;2023-08-17T12:43:14;4.53;;;2.95;;
10126;SDS011;13080;42.608;23.362;2023-08-17T12:45:40;9.90;;;3.05;;
10126;SDS011;13080;42.608;23.362;2023-08-17T12:48:07;6.40;;;2.65;;
10126;SDS011;13080;42.608;23.362;2023-08-17T12:50:33;5.60;;;3.00;;
10126;SDS011;13080;42.608;23.362;2023-08-17T12:53:00;9.63;;;3.50;;
10126;SDS011;13080;42.608;23.362;2023-08-17T12:55:26;5.55;;;3.50;;
10126;SDS011;13080;42.608;23.362;2023-08-17T12:57:53;5.15;;;3.17;;
10126;SDS011;13080;42.608;23.362;2023-08-17T13:00:21;6.00;;;3.20;;
10126;SDS011;13080;42.608;23.362;2023-08-17T13:02:47;5.97;;;3.10;;
10126;SDS011;13080;42.608;23.362;2023-08-17T13:05:16;7.07;;;3.33;;
10126;SDS011;13080;42.608;23.362;2023-08-17T13:07:43;11.95;;;3.50;;
10126;SDS011;13080;42.608;23.362;2023-08-17T13:10:09;5.05;;;3.10;;
10126;SDS011;13080;42.608;23.362;2023-08-17T13:12:35;5.72;;;3.28;;
10126;SDS011;13080;42.608;23.362;2023-08-17T13:15:02;7.25;;;3.47;;
10126;SDS011;13080;42.608;23.362;2023-08-17T13:17:30;5.07;;;3.40;;
10126;SDS011;13080;42.608;23.362;2023-08-17T13:19:57;5.38;;;3.60;;
10126;SDS011;13080;42.608;23.362;2023-08-17T13:22:23;8.25;;;4.10;;
10126;SDS011;13080;42.608;23.362;2023-08-17T13:24:50;6.07;;;3.25;;
10126;SDS011;13080;42.608;23.362;2023-08-17T13:27:16;3.25;;;2.58;;
10126;SDS011;13080;42.608;23.362;2023-08-17T13:29:43;4.38;;;3.10;;
10126;SDS011;13080;42.608;23.362;2023-08-17T13:32:09;7.47;;;2.92;;
10126;SDS011;13080;42.608;23.362;2023-08-17T13:34:37;6.20;;;3.13;;
10126;SDS011;13080;42.608;23.362;2023-08-17T13:37:04;7.20;;;3.03;;
10126;SDS011;13080;42.608;23.362;2023-08-17T13:39:30;6.88;;;3.42;;
10126;SDS011;13080;42.608;23.362;2023-08-17T13:41:57;7.57;;;3.22;;
10126;SDS011;13080;42.608;23.362;2023-08-17T13:44:23;5.75;;;3.35;;
10126;SDS011;13080;42.608;23.362;2023-08-17T13:46:50;5.63;;;3.00;;
10126;SDS011;13080;42.608;23.362;2023-08-17T13:49:16;5.95;;;3.50;;
10126;SDS011;13080;42.608;23.362;2023-08-17T13:51:44;4.97;;;3.17;;
10126;SDS011;13080;42.608;23.362;2023-08-17T13:54:11;8.35;;;3.60;;
10126;SDS011;13080;42.608;23.362;2023-08-17T13:56:37;6.68;;;3.28;;
10126;SDS011;13080;42.608;23.362;2023-08-17T13:59:04;7.88;;;3.80;;
10126;SDS011;13080;42.608;23.362;2023-08-17T14:01:30;6.93;;;3.13;;
10126;SDS011;13080;42.608;23.362;2023-08-17T14:03:57;10.18;;;3.63;;
10126;SDS011;13080;42.608;23.362;2023-08-17T14:06:23;5.93;;;3.63;;
10126;SDS011;13080;42.608;23.362;2023-08-17T14:08:51;6.18;;;2.97;;
10126;SDS011;13080;42.608;23.362;2023-08-17T14:11:17;6.68;;;3.53;;
10126;SDS011;13080;42.608;23.362;2023-08-17T14:13:44;6.82;;;3.00;;
10126;SDS011;13080;42.608;23.362;2023-08-17T14:16:10;7.63;;;3.00;;
10126;SDS011;13080;42.608;23.362;2023-08-17T14:18:37;6.90;;;3.65;;
10126;SDS011;13080;42.608;23.362;2023-08-17T14:21:03;4.43;;;3.30;;
10126;SDS011;13080;42.608;23.362;2023-08-17T14:23:30;5.10;;;3.88;;
10126;SDS011;13080;42.608;23.362;2023-08-17T14:25:58;5.13;;;3.67;;
10126;SDS011;13080;42.608;23.362;2023-08-17T14:28:24;5.05;;;3.65;;
10126;SDS011;13080;42.608;23.362;2023-08-17T14:30:51;4.40;;;3.13;;
10126;SDS011;13080;42.608;23.362;2023-08-17T14:33:18;6.97;;;3.03;;
10126;SDS011;13080;42.608;23.362;2023-08-17T14:35:44;5.68;;;2.92;;
10126;SDS011;13080;42.608;23.362;2023-08-17T14:38:13;5.25;;;3.00;;